• Join FlightAware (Why Join?)
  • Login
  • US Flag 
08:24AM EDT


 

Airport Tracker/Info


-or-


 

Live Flight TrackerFlight Track Log ✈ N523JM ✈ 18-Jul-2013 ✈ KOSU - KEYW

Flight Track Log - Related Links

Times and Time Zones

All times are in EDT time to prevent confusion due to time zone crossing. See the N523JM flight status page for this flight to view local times or setup timezone preferences in your user account.

Time Position Orientation Groundspeed Altitude Reporting Facility
EDT Latitude Longitude Course Direction KTS MPH feet Rate Location/Type
09:17AM 40.0756 -83.0886 265° West 170 196 1,200  Level Indianapolis Center
09:18AM 40.0694 -83.1722 265° West 230 265 3,300 1,920 Climbing Indianapolis Center
09:19AM 40.0069 -83.1689 178° South 243 280 5,500 1,980 Climbing Indianapolis Center
09:20AM 39.9361 -83.1208 153° Southeast 281 323 7,600 1,980 Climbing Indianapolis Center
09:21AM 39.8667 -83.0556 144° Southeast 300 345 9,700 1,980 Climbing Indianapolis Center
09:22AM 39.7928 -82.9864 144° Southeast 320 368 11,800 1,980 Climbing Indianapolis Center
09:23AM 39.7086 -82.9103 145° Southeast 360 414 13,800 1,980 Climbing Indianapolis Center
09:24AM 39.6025 -82.8894 171° South 378 435 15,900 1,980 Climbing Indianapolis Center
09:25AM 39.4786 -82.8617 170° South 383 441 18,000 1,980 Climbing Indianapolis Center
09:26AM 39.3708 -82.8386 171° South 387 445 20,100 1,980 Climbing Indianapolis Center
09:27AM 39.2619 -82.8150 170° South 392 451 22,100 1,620 Climbing Indianapolis Center
09:28AM 39.1639 -82.7911 169° South 394 453 23,500 1,500 Climbing Indianapolis Center
09:29AM 39.0286 -82.7625 171° South 410 472 25,300 1,500 Climbing Indianapolis Center
09:30AM 38.9147 -82.7372 170° South 415 478 26,700 1,140 Climbing Indianapolis Center
09:31AM 38.8006 -82.7114 170° South 419 482 27,700 960 Climbing Indianapolis Center
09:32AM 38.6817 -82.6856 170° South 431 496 28,700 960 Climbing Indianapolis Center
09:33AM 38.5539 -82.6578 170° South 441 507 29,700 960 Climbing Indianapolis Center
09:34AM 38.4314 -82.6314 170° South 445 512 30,700 600 Climbing Indianapolis Center
09:35AM 38.2861 -82.6003 170° South 454 522 31,000 120 Climbing Indianapolis Center
09:36AM 38.1553 -82.5714 170° South 473 544 31,000  Level Indianapolis Center
09:37AM 38.0228 -82.5442 171° South 479 551 31,000 120 Level Indianapolis Center
09:38AM 37.8867 -82.5142 170° South 491 565 31,300 600 Climbing Indianapolis Center
09:39AM 37.7533 -82.4847 170° South 488 562 32,300 900 Climbing Indianapolis Center
09:40AM 37.6247 -82.4578 171° South 470 541 33,200 960 Climbing Indianapolis Center
09:41AM 37.4778 -82.4283 171° South 456 525 34,400 960 Climbing Indianapolis Center
09:43AM 37.3522 -82.4019 171° South 455 524 35,300 720 Climbing Indianapolis Center
09:44AM 37.2275 -82.3747 170° South 453 521 36,000 300 Climbing Indianapolis Center
09:45AM 37.0992 -82.3481 171° South 461 531 36,000  Level Indianapolis Center
09:46AM 36.9675 -82.3256 172° South 469 540 36,000  Level Indianapolis Center
09:47AM 36.8292 -82.3336 183° South 490 564 36,000  Level Indianapolis Center
09:48AM 36.6939 -82.3389 182° South 482 555 36,000  Level Indianapolis Center
09:49AM 36.5575 -82.3433 181° South 487 560 36,000  Level Atlanta Center
09:50AM 36.4408 -82.3483 182° South 487 560 36,000  Level Atlanta Center
09:51AM 36.3053 -82.3539 182° South 487 560 36,000  Level Atlanta Center
09:52AM 36.1719 -82.3592 182° South 487 560 36,000  Level Atlanta Center
09:53AM 36.0383 -82.3619 181° South 480 552 36,000  Level Atlanta Center
09:54AM 35.9050 -82.3672 182° South 475 547 36,000  Level Atlanta Center
09:55AM 35.7717 -82.3725 182° South 475 547 36,000  Level Atlanta Center
09:56AM 35.6425 -82.3803 183° South 470 541 36,000  Level Atlanta Center
09:57AM 35.5111 -82.3831 181° South 470 541 36,000  Level Atlanta Center
09:58AM 35.3650 -82.3911 183° South 481 554 36,000  Level Atlanta Center
09:59AM 35.2317 -82.3936 181° South 476 548 36,000  Level Atlanta Center
10:00AM 35.1147 -82.3986 182° South 476 548 36,000  Level Atlanta Center
10:01AM 34.9833 -82.3986 180° South 476 548 36,000  Level Atlanta Center
10:02AM 34.8519 -82.4036 182° South 476 548 36,000  Level Atlanta Center
10:03AM 34.7164 -82.4089 182° South 476 548 36,000  Level Atlanta Center
10:04AM 34.5869 -82.4139 182° South 476 548 36,000  Level Atlanta Center
10:05AM 34.4556 -82.4164 181° South 476 548 36,000  Level Atlanta Center
10:06AM 34.3094 -82.4217 182° South 481 554 36,000  Level Atlanta Center
10:07AM 34.1781 -82.4267 182° South 476 548 36,000  Level Atlanta Center
10:08AM 34.0425 -82.4294 181° South 487 560 36,000  Level Atlanta Center
10:09AM 33.9089 -82.4319 181° South 487 560 36,000  Level Atlanta Center
10:10AM 33.7881 -82.4392 183° South 482 555 36,000  Level Atlanta Center
10:11AM 33.6608 -82.4414 181° South 467 537 36,000  Level Atlanta Center
10:12AM 33.5292 -82.4489 183° South 467 537 36,000  Level Atlanta Center
10:13AM 33.4019 -82.4514 181° South 467 537 36,000  Level Atlanta Center
10:14AM 33.2725 -82.4536 181° South 467 537 36,000  Level Atlanta Center
10:15AM 33.1453 -82.4583 182° South 462 532 36,000  Level Atlanta Center
10:16AM 33.0161 -82.4633 182° South 462 532 36,000  Level Atlanta Center
10:17AM 32.8886 -82.4681 182° South 457 526 36,000  Level Atlanta Center
10:19AM 32.5875 -82.4758 181° South 471 542 36,000  Level Jacksonville Center
10:20AM 32.4581 -82.4814 182° South 471 542 36,000  Level Jacksonville Center
10:21AM 32.3475 -82.4819 180° South 457 526 36,000  Level Jacksonville Center
10:22AM 32.2181 -82.4850 181° South 462 532 36,000  Level Jacksonville Center
10:23AM 32.0886 -82.4906 182° South 462 532 36,000  Level Jacksonville Center
10:24AM 31.9592 -82.4933 181° South 462 532 36,000  Level Jacksonville Center
10:25AM 31.8278 -82.4964 181° South 467 537 36,000  Level Jacksonville Center
10:26AM 31.6983 -82.4994 181° South 467 537 36,000  Level Jacksonville Center
10:27AM 31.5542 -82.5050 182° South 467 537 36,000  Level Jacksonville Center
10:28AM 31.4228 -82.5103 182° South 472 543 36,000  Level Jacksonville Center
10:29AM 31.2953 -82.5181 183° South 471 542 36,000  Level Jacksonville Center
10:30AM 31.1617 -82.5258 183° South 471 542 36,000  Level Jacksonville Center
10:31AM 31.0364 -82.5242 179° South 471 542 36,000  Level Jacksonville Center
10:32AM 30.9050 -82.5317 183° South 471 542 36,000  Level Jacksonville Center
10:33AM 30.7756 -82.5394 183° South 471 542 36,000  Level Jacksonville Center
10:34AM 30.6461 -82.5667 190° South 471 542 36,000  Level Jacksonville Center
10:35AM 30.5253 -82.6322 205° Southwest 474 545 36,000  Level Jacksonville Center
10:36AM 30.4042 -82.6711 195° South 474 545 36,000 120 Level Jacksonville Center
10:37AM 30.2767 -82.6472 171° South 448 516 36,300 480 Climbing Jacksonville Center
10:38AM 30.1556 -82.6283 172° South 453 521 37,000 300 Climbing Jacksonville Center
10:39AM 30.0325 -82.6069 171° South 448 516 37,000  Level Jacksonville Center
10:40AM 29.9069 -82.5883 173° South 448 516 37,000  Level Jacksonville Center
10:41AM 29.7817 -82.5672 172° South 448 516 37,000  Level Jacksonville Center
10:42AM 29.6564 -82.5483 173° South 453 521 37,000  Level Jacksonville Center
10:43AM 29.5289 -82.5297 173° South 458 527 37,000  Level Jacksonville Center
10:44AM 29.4017 -82.5089 172° South 464 534 37,000  Level Jacksonville Center
10:45AM 29.2783 -82.4903 173° South 464 534 37,000  Level Jacksonville Center
10:46AM 29.1511 -82.4717 173° South 464 534 37,000  Level Jacksonville Center
10:47AM 29.0258 -82.4533 173° South 464 534 37,000  Level Jacksonville Center
10:48AM 28.8983 -82.4350 173° South 464 534 37,000  Level Jacksonville Center
10:49AM 28.7689 -82.4117 171° South 464 534 37,000  Level Jacksonville Center
10:50AM 28.6581 -82.4006 175° South 464 534 37,000  Level Jacksonville Center
10:51AM 28.5286 -82.3797 172° South 459 528 37,000  Level Jacksonville Center
10:52AM 28.3992 -82.3592 172° South 469 540 37,000  Level Jacksonville Center
10:55AM 28.0367 -82.3067 173° South 485 558 37,000  Level Miami Center
10:56AM 27.9122 -82.2864 172° South 474 545 37,000  Level Miami Center
10:57AM 27.7753 -82.2658 172° South 462 532 37,000  Level Miami Center
10:58AM 27.6486 -82.2481 173° South 474 545 37,000  Level Miami Center
10:59AM 27.5408 -82.2314 172° South 453 521 37,000  Level Miami Center
11:00AM 27.4164 -82.2139 173° South 453 521 37,000  Level Miami Center
11:01AM 27.2814 -82.1914 172° South 453 521 37,000  Level Miami Center
11:02AM 27.1589 -82.1739 173° South 453 521 37,000  Level Miami Center
11:03AM 27.0344 -82.1567 173° South 453 521 37,000  Level Miami Center
11:04AM 26.9139 -82.1394 173° South 453 521 37,000  Level Miami Center
11:05AM 26.7875 -82.1197 172° South 453 521 37,000  Level Miami Center
11:06AM 26.6628 -82.1025 173° South 453 521 37,000  Level Miami Center
11:07AM 26.5403 -82.0856 173° South 453 521 37,000  Level Miami Center
11:08AM 26.4175 -82.0708 174° South 448 516 37,000 -300 Level Miami Center
11:09AM 26.2953 -82.0492 171° South 443 510 36,400 -1,020 Descending Miami Center
11:10AM 26.1936 -82.0308 171° South 430 495 35,000 -1,740 Descending Miami Center
11:11AM 26.0772 -82.0142 173° South 424 488 33,000 -2,100 Descending Miami Center
11:12AM 25.9547 -81.9975 173° South 429 494 30,900 -2,400 Descending Miami Center
11:13AM 25.8342 -81.9783 172° South 423 487 28,300 -2,700 Descending Miami Center
11:14AM 25.7261 -81.9647 174° South 411 473 25,500 -2,700 Descending Miami Center
11:15AM 25.6244 -81.9442 170° South 390 449 23,000 -2,460 Descending Miami Center
11:16AM 25.5275 -81.9147 165° South 373 429 20,600 -2,460 Descending Miami Center
11:17AM 25.4325 -81.8786 161° South 363 418 18,100 -2,400 Descending Miami Center
11:18AM 25.3439 -81.8428 160° South 357 411 15,800 -2,280 Descending Miami Center
11:19AM 25.2594 -81.8117 162° South 345 397 13,600 -2,100 Descending Miami Center
11:20AM 25.1744 -81.7900 167° South 321 369 11,700 -1,800 Descending Miami Center
11:21AM 25.0997 -81.7825 175° South 296 341 10,100 -900 Descending Miami Center
11:22AM 25.0289 -81.7772 176° South 271 312 10,000 -480 Descending Miami Center
11:23AM 24.9617 -81.7883 189° South 260 299 9,200 -1,440 Descending Miami Center
11:24AM 24.8997 -81.8269 209° Southwest 249 287 7,200 -2,040 Descending Miami Center
11:25AM 24.8403 -81.8611 208° Southwest 249 287 5,200 -1,620 Descending Miami Center
11:26AM 24.7847 -81.8978 211° Southwest 249 287 4,000 -780 Descending Miami Center
11:27AM 24.7292 -81.9322 209° Southwest 244 281 3,700 -300 Descending Miami Center
11:29AM 24.5620 -81.7655 170° South  Level Estimated
11:36AM 24.5561 -81.7596 170° South  Level Estimated
11:37AM 24.5561 -81.7596 170° South  Level Estimated
11:38AM 24.5561 -81.7596 170° South  Level Estimated
11:39AM 24.5561 -81.7596 170° South  Level Estimated
11:40AM 24.5561 -81.7596 170° South  Level Estimated
11:41AM 24.5561 -81.7596 170° South  Level Estimated
11:42AM 24.5561 -81.7596 170° South  Level Estimated
11:43AM 24.5561 -81.7596 170° South  Level Estimated